Date,TemperatureHighF,TemperatureAvgF,TemperatureLowF,DewpointHighF,DewpointAvgF,DewpointLowF,HumidityHigh,HumidityAvg,HumidityLow,PressureMaxIn,PressureMinIn,WindSpeedMaxMPH,WindSpeedAvgMPH,GustSpeedMaxMPH,PrecipitationSumIn
2013-1-1,41,38,28,30,25,13,69,61,47,30.00,29.82,10,4,19,0.00
2013-1-2,34,29,24,18,14,11,61,54,44,30.17,30.00,10,4,18,0.00
2013-1-3,34,30,27,20,17,15,68,59,48,30.18,30.06,13,3,18,0.00
2013-1-4,38,35,32,24,22,20,66,60,52,30.08,29.94,15,4,19,0.00
2013-1-5,44,38,33,25,22,19,61,54,44,30.26,30.01,10,3,20,0.00
2013-1-6,46,40,34,33,29,24,89,66,49,30.21,29.96,7,2,13,0.00
2013-1-7,46,42,39,31,26,22,69,54,39,30.38,30.04,8,2,16,0.00
2013-1-8,49,42,36,34,31,25,73,65,54,30.42,30.33,7,2,13,0.00
2013-1-9,50,46,39,40,36,31,78,68,60,30.38,30.12,10,2,18,0.00
2013-1-10,49,45,42,35,26,24,64,48,38,30.53,30.23,8,3,17,0.00
2013-1-11,47,43,39,46,35,25,96,74,53,30.52,30.08,4,1,8,0.55
2013-1-12,47,45,44,45,44,43,97,95,92,30.16,30.05,9,2,11,0.03
2013-1-13,51,47,43,50,45,43,98,95,89,30.15,30.00,4,1,6,0.00
2013-1-14,57,51,40,53,44,30,99,79,49,30.29,29.90,11,2,14,0.07
2013-1-15,40,38,36,35,29,25,88,70,58,30.33,30.21,9,4,12,0.13
2013-1-16,38,36,33,35,34,30,95,92,78,30.21,29.79,7,2,14,0.78
2013-1-17,44,41,37,35,29,24,86,64,53,30.08,29.90,14,3,17,0.00
2013-1-18,37,30,27,25,12,5,65,49,33,30.48,29.99,10,3,16,0.00
2013-1-19,52,41,30,30,25,14,69,53,38,30.39,29.91,13,3,14,0.00
2013-1-20,54,44,31,31,25,12,66,48,24,30.03,29.68,17,5,25,0.00
2013-1-21,33,30,28,19,13,8,62,49,41,30.08,29.82,11,2,15,0.00
2013-1-22,28,21,15,15,3,-6,68,46,31,30.20,29.82,17,7,24,0.00
2013-1-23,20,16,12,2,-2,-6,55,45,35,30.25,30.16,13,5,20,0.00
2013-1-24,24,19,15,4,1,-5,60,46,32,30.39,30.12,15,5,25,0.00
2013-1-25,24,19,14,18,7,-1,88,62,46,30.41,30.06,11,3,19,0.00
2013-1-26,28,22,18,14,10,6,79,61,43,30.36,30.04,12,4,19,0.00
2013-1-27,36,28,21,14,11,8,68,51,36,30.51,30.36,9,3,15,0.00
2013-1-28,36,33,30,34,26,13,92,76,47,30.48,30.00,6,2,12,0.19
2013-1-29,50,43,37,42,39,34,93,87,72,30.13,29.99,8,2,13,0.05
2013-1-30,57,49,39,53,47,38,98,93,81,30.07,29.36,7,1,15,0.02
2013-1-31,61,46,30,58,32,10,98,61,36,29.78,29.05,23,8,40,0.92
2013-2-1,32,29,25,16,12,6,65,50,34,30.22,29.79,13,6,23,0.00
2013-2-2,30,25,20,22,10,6,86,54,36,30.30,30.05,11,4,16,0.00
2013-2-3,31,28,25,24,20,17,90,75,58,30.05,29.78,8,2,14,0.00
2013-2-4,31,28,24,22,12,9,74,52,40,29.97,29.80,15,6,23,0.00
2013-2-5,32,30,29,30,26,18,91,85,61,29.96,29.89,7,2,10,0.00
2013-2-6,40,34,31,31,22,3,95,63,31,30.35,29.91,10,4,20,0.00
2013-2-7,32,30,28,23,12,4,68,47,32,30.50,30.32,8,3,11,0.00
2013-2-8,35,33,28,33,30,23,97,89,69,30.31,29.61,19,7,25,0.31
2013-2-9,34,28,23,28,18,7,98,68,38,30.33,29.74,13,5,23,0.00
2013-2-10,38,28,21,26,14,7,75,56,33,30.48,30.32,7,2,16,0.00
2013-2-11,46,42,34,46,39,23,98,91,63,30.33,29.65,11,1,14,0.66
2013-2-12,45,42,38,42,28,25,88,58,48,29.96,29.71,15,5,23,0.00
2013-2-13,46,39,35,33,26,23,89,61,47,29.94,29.68,6,2,10,0.01
2013-2-14,47,40,35,36,31,24,91,72,45,29.99,29.69,7,2,10,0.01
2013-2-15,55,44,37,40,35,28,81,70,47,30.01,29.91,11,2,14,0.00
2013-2-16,42,36,32,35,27,16,89,69,52,29.95,29.72,12,4,19,0.01
2013-2-17,32,27,18,16,6,2,52,42,31,29.99,29.65,16,8,29,0.00
2013-2-18,36,27,18,15,7,2,56,44,30,30.23,30.00,16,5,24,0.00
2013-2-19,49,41,32,44,30,15,94,69,46,30.20,29.66,13,3,20,0.13
2013-2-20,39,32,26,27,15,10,63,50,41,29.98,29.71,20,8,26,0.00
2013-2-21,35,29,25,16,13,11,63,53,43,30.27,29.97,17,7,23,0.00
2013-2-22,38,33,27,33,23,16,81,69,58,30.39,30.25,13,3,15,0.00
2013-2-23,45,39,36,44,38,34,97,94,84,30.25,29.79,11,3,18,0.41
2013-2-24,48,40,35,39,33,23,96,75,54,29.95,29.72,15,4,20,0.02
2013-2-25,45,40,34,29,26,23,71,59,48,30.22,29.97,6,2,13,0.00
2013-2-26,45,40,35,35,32,29,92,75,58,30.28,29.88,15,3,17,0.16
2013-2-27,48,42,37,45,40,35,98,90,73,29.88,29.49,14,5,19,1.67
2013-2-28,50,46,40,39,35,29,81,67,52,29.61,29.53,8,3,13,0.00
2013-3-1,46,41,38,32,30,27,77,66,50,29.76,29.59,13,4,16,0.00
2013-3-2,40,36,32,28,26,24,80,65,55,29.77,29.68,8,3,16,0.00
2013-3-3,41,33,30,25,20,17,77,59,44,29.75,29.65,13,4,20,0.00
2013-3-4,41,34,28,21,20,16,68,56,44,29.89,29.75,13,6,23,0.00
2013-3-5,48,40,33,31,25,21,68,57,42,30.00,29.90,9,3,16,0.00
2013-3-6,42,40,38,36,32,29,85,74,65,29.97,29.83,23,9,32,0.00
2013-3-7,39,36,34,33,31,27,92,82,68,30.06,29.90,18,6,25,0.11
2013-3-8,43,36,32,34,31,28,96,84,59,30.17,29.99,12,3,23,0.43
2013-3-9,56,46,37,34,24,16,78,46,24,30.31,30.15,13,4,21,0.00
2013-3-10,48,41,36,36,34,32,88,78,63,30.38,30.30,7,2,10,0.00
2013-3-11,53,46,40,46,42,36,94,86,73,30.31,30.09,7,2,13,0.00
2013-3-12,57,50,45,55,47,38,97,90,74,30.09,29.66,11,4,21,0.73
2013-3-13,50,45,41,38,30,23,77,59,35,29.88,29.77,16,4,18,0.00
2013-3-14,42,36,30,26,14,7,63,41,25,29.95,29.83,14,7,30,0.00
2013-3-15,48,38,31,32,20,10,61,48,36,29.97,29.70,12,4,18,0.00
2013-3-16,43,37,34,32,27,20,91,69,49,29.90,29.77,8,2,14,0.05
2013-3-17,38,35,30,30,19,11,79,55,35,30.30,29.90,14,3,18,0.01
2013-3-18,37,33,29,33,20,8,96,63,38,30.40,30.02,10,4,15,0.00
2013-3-19,46,39,34,37,34,29,96,85,64,30.01,29.68,13,4,17,0.90
2013-3-20,46,40,33,29,20,16,67,46,31,29.88,29.77,15,4,24,0.00
2013-3-21,40,36,33,27,18,11,77,49,34,29.83,29.62,13,3,18,0.00
2013-3-22,41,36,30,24,18,13,64,49,39,29.87,29.72,12,5,21,0.00
2013-3-23,46,40,33,24,20,18,63,47,35,29.93,29.81,18,6,25,0.00
2013-3-24,46,40,34,28,22,20,61,50,38,29.94,29.70,8,3,18,0.00
2013-3-25,40,38,36,36,31,27,92,76,59,29.70,29.45,17,4,24,0.23
2013-3-26,52,45,39,32,28,25,76,54,35,29.85,29.57,12,3,17,0.00
2013-3-27,53,46,39,33,26,21,62,48,29,29.96,29.85,11,4,21,0.00
2013-3-28,49,45,39,35,31,29,71,59,46,30.09,29.94,11,4,17,0.01
2013-3-29,55,48,42,31,29,26,63,49,34,30.13,30.03,11,4,16,0.00
2013-3-30,59,50,42,37,29,20,65,48,22,30.16,30.05,7,2,16,0.00
2013-3-31,54,49,43,45,36,24,96,63,35,30.11,29.66,14,3,16,0.16
2013-4-1,62,50,40,46,39,13,96,69,34,29.89,29.61,11,4,23,0.00
2013-4-2,44,39,34,18,14,10,49,37,26,30.07,29.91,12,6,22,0.00
2013-4-3,47,40,34,15,12,9,45,34,23,30.27,30.07,17,6,23,0.00
2013-4-4,52,42,35,33,23,16,64,47,31,30.38,30.08,8,3,15,0.00
2013-4-5,63,51,41,33,26,19,68,43,19,30.07,29.69,12,3,19,0.00
2013-4-6,52,43,36,31,18,8,65,39,18,30.30,29.98,14,3,20,0.00
2013-4-7,54,48,40,45,37,25,79,66,48,30.30,29.99,16,3,22,0.00
2013-4-8,74,59,50,48,45,41,86,62,32,30.06,29.96,9,2,12,0.00
2013-4-9,84,69,51,53,45,35,87,50,18,29.99,29.89,11,2,26,0.00
2013-4-10,72,63,56,56,50,45,94,64,48,29.96,29.80,8,2,16,0.61
2013-4-11,60,55,48,59,50,40,95,82,67,30.03,29.75,10,3,15,0.03
2013-4-12,49,44,42,43,41,38,95,89,67,30.01,29.70,17,6,19,0.64
2013-4-13,57,49,42,45,40,33,95,72,45,29.96,29.73,10,2,13,0.03
2013-4-14,58,53,48,45,34,27,84,51,31,30.21,29.95,15,3,19,0.00
2013-4-15,56,50,46,42,32,26,81,51,37,30.37,30.22,7,2,11,0.00
2013-4-16,62,55,47,54,49,40,85,78,71,30.36,30.11,17,3,22,0.00
2013-4-17,71,62,56,57,47,39,88,60,32,30.28,30.09,9,2,12,0.02
2013-4-18,58,54,51,52,45,39,95,71,50,30.34,30.09,11,3,21,0.00
2013-4-19,70,61,54,62,57,53,98,89,72,30.08,29.65,13,3,18,0.02
2013-4-20,64,55,48,62,35,25,92,52,29,30.28,29.66,15,5,21,0.09
2013-4-21,54,45,38,33,24,19,61,44,28,30.61,30.29,11,3,20,0.00
2013-4-22,54,47,42,36,33,27,72,58,37,30.65,30.48,14,4,21,0.00
2013-4-23,53,46,41,42,38,33,90,74,63,30.48,30.10,13,5,18,0.00
2013-4-24,66,54,46,50,45,40,91,74,51,30.10,29.83,8,2,15,0.00
2013-4-25,66,56,48,54,33,22,90,45,19,30.25,29.85,11,3,20,0.00
2013-4-26,67,58,51,37,33,24,57,41,20,30.39,30.25,9,2,14,0.00
2013-4-27,71,58,50,35,30,25,45,35,20,30.41,30.27,10,3,12,0.00
2013-4-28,68,58,50,45,36,28,64,44,24,30.30,30.20,9,2,17,0.00
2013-4-29,57,55,53,50,48,44,86,78,66,30.23,30.17,7,2,11,0.06
2013-4-30,66,57,52,48,38,23,87,54,20,30.33,30.20,9,2,15,0.00
2013-5-1,66,57,49,47,40,30,73,54,32,30.47,30.32,11,2,16,0.00
2013-5-2,70,60,50,47,44,39,84,57,38,30.46,30.32,5,1,8,0.00
2013-5-3,64,55,50,46,41,36,82,61,41,30.45,30.36,14,3,15,0.00
2013-5-4,66,55,49,46,44,41,84,67,44,30.36,30.25,9,2,14,0.00
2013-5-5,60,52,46,45,42,38,80,69,50,30.29,30.22,10,3,14,0.00
2013-5-6,67,56,48,51,47,43,85,74,57,30.26,30.15,7,2,11,0.00
2013-5-7,72,62,53,60,54,48,90,76,62,30.16,30.07,6,2,13,0.00
2013-5-8,63,59,56,60,57,53,98,92,83,30.09,29.97,10,2,13,3.85
2013-5-9,69,61,55,59,56,54,97,85,60,30.00,29.88,7,1,10,0.42
2013-5-10,82,68,58,58,57,54,91,70,42,29.99,29.87,8,1,11,0.00
2013-5-11,70,64,62,64,62,58,95,90,73,29.88,29.68,6,1,14,0.64
2013-5-12,69,63,54,63,42,25,94,50,24,29.92,29.64,18,5,26,0.02
2013-5-13,57,52,48,33,29,25,57,42,30,30.09,29.92,14,4,16,0.00
2013-5-14,63,54,44,39,28,20,64,42,20,30.11,30.00,9,2,12,0.00
2013-5-15,69,60,53,60,47,33,79,63,46,30.05,29.67,10,2,14,0.00
2013-5-16,81,72,66,59,51,43,76,51,33,29.81,29.69,6,1,10,0.00
2013-5-17,76,68,61,44,41,37,49,38,28,30.18,29.81,9,2,13,0.00
2013-5-18,67,62,59,55,50,41,81,67,42,30.30,30.18,4,1,7,0.01
2013-5-19,59,57,56,58,56,50,98,93,72,30.31,30.17,8,2,12,0.58
2013-5-20,82,69,58,67,63,58,99,83,60,30.16,29.95,7,1,9,0.00
2013-5-21,89,78,67,70,68,65,94,74,52,29.96,29.82,6,2,11,0.00
2013-5-22,79,70,59,70,65,57,93,82,69,29.93,29.82,8,2,15,0.00
2013-5-23,83,71,64,70,66,62,94,85,58,29.88,29.75,12,2,14,0.40
2013-5-24,68,58,47,64,54,42,95,87,74,29.93,29.66,11,3,17,0.35
2013-5-25,55,50,46,45,42,39,89,75,57,29.99,29.88,14,5,26,0.13
2013-5-26,69,58,49,40,37,34,69,48,29,30.19,29.94,13,5,24,0.00
2013-5-27,77,65,52,43,38,34,58,39,25,30.24,30.10,7,2,11,0.00
2013-5-28,73,62,57,58,51,43,97,71,38,30.22,30.12,7,1,8,0.59
2013-5-29,85,71,58,68,63,58,98,78,57,30.11,29.98,5,1,8,0.00
2013-5-30,94,84,74,68,66,62,81,56,36,30.11,30.03,4,2,10,0.00
2013-5-31,96,85,76,70,66,61,71,54,37,30.11,29.97,6,1,12,0.00
2013-6-1,93,83,74,69,67,65,78,61,42,30.01,29.88,5,2,13,0.00
2013-6-2,92,82,74,71,68,64,84,64,46,29.91,29.76,10,2,13,0.05
2013-6-3,78,73,70,70,67,49,94,83,47,29.86,29.78,7,1,12,0.68
2013-6-4,77,69,59,50,43,38,55,41,28,30.09,29.87,9,3,15,0.00
2013-6-5,74,67,60,57,45,36,85,46,34,30.19,30.09,8,2,13,0.00
2013-6-6,71,64,60,60,57,47,91,78,43,30.14,30.00,10,2,15,0.10
2013-6-7,63,62,59,62,60,58,98,96,90,30.00,29.61,14,3,24,4.25
2013-6-8,78,69,57,64,61,57,98,78,61,30.03,29.56,9,2,20,1.12
2013-6-9,84,74,66,64,60,55,84,63,43,30.16,30.03,6,1,11,0.00
2013-6-10,71,68,64,66,64,63,98,89,80,30.14,29.82,7,2,16,1.36
2013-6-11,82,74,64,69,65,60,99,76,56,29.81,29.60,11,3,24,0.22
2013-6-12,78,73,67,62,55,52,73,54,41,29.83,29.69,9,3,19,0.00
2013-6-13,72,65,57,62,58,53,95,79,51,29.82,29.45,29,3,30,1.53
2013-6-14,75,63,55,61,54,51,94,74,50,29.87,29.49,18,4,22,0.36
2013-6-15,83,74,64,58,54,48,75,53,30,29.99,29.87,6,2,12,0.00
2013-6-16,84,76,68,66,58,50,76,55,35,29.98,29.76,10,2,16,0.00
2013-6-17,90,78,70,67,66,62,85,67,44,29.90,29.82,11,1,16,0.05
2013-6-18,85,73,67,70,65,63,92,77,50,29.88,29.80,9,2,12,0.22
2013-6-19,79,70,62,64,53,43,94,60,30,30.15,29.86,11,3,18,0.02
2013-6-20,82,72,64,59,54,51,69,55,41,30.26,30.16,9,2,13,0.00
2013-6-21,85,73,65,57,53,47,63,49,38,30.29,30.23,7,2,11,0.00
2013-6-22,86,74,66,63,56,48,75,54,41,30.26,30.13,7,2,12,0.00
2013-6-23,90,79,70,73,67,58,87,68,49,30.18,30.05,7,2,12,0.00
2013-6-24,95,84,75,73,69,62,90,63,35,30.07,29.93,7,2,11,0.00
2013-6-25,94,83,74,72,68,64,76,61,41,29.98,29.79,12,2,19,0.00
2013-6-26,88,81,74,72,68,65,79,65,46,29.83,29.77,7,2,11,0.00
2013-6-27,88,80,74,73,71,68,93,75,54,29.81,29.55,9,2,17,0.13
2013-6-28,91,80,75,72,70,66,89,73,50,29.56,29.46,8,2,11,0.02
2013-6-29,86,78,72,71,69,66,86,73,52,29.64,29.48,8,2,14,0.00